sensor_id;sensor_type;location;lat;lon;timestamp;temperature;humidity
74869;DHT22;63419;42.262;12.210;2023-05-10T00:00:41;13.90;99.90
74869;DHT22;63419;42.262;12.210;2023-05-10T00:03:08;13.90;99.90
74869;DHT22;63419;42.262;12.210;2023-05-10T00:05:35;13.90;99.90
74869;DHT22;63419;42.262;12.210;2023-05-10T00:08:02;13.90;99.90
74869;DHT22;63419;42.262;12.210;2023-05-10T00:10:29;13.80;99.90
74869;DHT22;63419;42.262;12.210;2023-05-10T00:12:56;13.70;99.90
74869;DHT22;63419;42.262;12.210;2023-05-10T00:15:23;13.60;99.90
74869;DHT22;63419;42.262;12.210;2023-05-10T00:17:50;13.60;99.90
74869;DHT22;63419;42.262;12.210;2023-05-10T00:20:17;13.50;99.90
74869;DHT22;63419;42.262;12.210;2023-05-10T00:22:44;13.50;99.90
74869;DHT22;63419;42.262;12.210;2023-05-10T00:25:11;13.50;99.90
74869;DHT22;63419;42.262;12.210;2023-05-10T00:27:38;13.50;99.90
74869;DHT22;63419;42.262;12.210;2023-05-10T00:30:05;13.60;99.90
74869;DHT22;63419;42.262;12.210;2023-05-10T00:32:33;13.60;99.90
74869;DHT22;63419;42.262;12.210;2023-05-10T00:35:00;13.70;99.90
74869;DHT22;63419;42.262;12.210;2023-05-10T00:37:27;13.70;99.90
74869;DHT22;63419;42.262;12.210;2023-05-10T00:39:54;13.70;99.90
74869;DHT22;63419;42.262;12.210;2023-05-10T00:42:21;13.70;99.90
74869;DHT22;63419;42.262;12.210;2023-05-10T00:44:48;13.60;99.90
74869;DHT22;63419;42.262;12.210;2023-05-10T00:47:16;13.70;99.90
74869;DHT22;63419;42.262;12.210;2023-05-10T00:49:43;13.70;99.90
74869;DHT22;63419;42.262;12.210;2023-05-10T00:52:11;13.70;99.90
74869;DHT22;63419;42.262;12.210;2023-05-10T00:54:38;13.70;99.90
74869;DHT22;63419;42.262;12.210;2023-05-10T00:57:05;13.70;99.90
74869;DHT22;63419;42.262;12.210;2023-05-10T00:59:32;13.70;99.90
74869;DHT22;63419;42.262;12.210;2023-05-10T01:01:59;13.70;99.90
74869;DHT22;63419;42.262;12.210;2023-05-10T01:04:26;13.80;99.90
74869;DHT22;63419;42.262;12.210;2023-05-10T01:06:53;13.60;99.90
74869;DHT22;63419;42.262;12.210;2023-05-10T01:09:21;13.70;99.90
74869;DHT22;63419;42.262;12.210;2023-05-10T01:11:49;13.20;99.90
74869;DHT22;63419;42.262;12.210;2023-05-10T01:14:18;12.90;99.90
74869;DHT22;63419;42.262;12.210;2023-05-10T01:16:47;12.80;99.90
74869;DHT22;63419;42.262;12.210;2023-05-10T01:19:26;12.90;99.90
74869;DHT22;63419;42.262;12.210;2023-05-10T01:22:06;13.00;99.90
74869;DHT22;63419;42.262;12.210;2023-05-10T01:27:45;13.20;99.90
74869;DHT22;63419;42.262;12.210;2023-05-10T01:30:51;13.20;99.90
74869;DHT22;63419;42.262;12.210;2023-05-10T01:36:23;13.10;99.90
74869;DHT22;63419;42.262;12.210;2023-05-10T01:42:06;13.30;99.90
74869;DHT22;63419;42.262;12.210;2023-05-10T01:44:41;13.30;99.90
74869;DHT22;63419;42.262;12.210;2023-05-10T01:47:17;13.40;99.90
74869;DHT22;63419;42.262;12.210;2023-05-10T01:49:51;13.40;99.90
74869;DHT22;63419;42.262;12.210;2023-05-10T01:52:25;13.40;99.90
74869;DHT22;63419;42.262;12.210;2023-05-10T01:55:02;13.40;99.90
74869;DHT22;63419;42.262;12.210;2023-05-10T01:57:35;13.30;99.90
74869;DHT22;63419;42.262;12.210;2023-05-10T02:00:04;13.30;99.90
74869;DHT22;63419;42.262;12.210;2023-05-10T02:02:37;13.30;99.90
74869;DHT22;63419;42.262;12.210;2023-05-10T02:05:06;13.30;99.90
74869;DHT22;63419;42.262;12.210;2023-05-10T02:07:35;13.30;99.90
74869;DHT22;63419;42.262;12.210;2023-05-10T02:10:04;13.30;99.90
74869;DHT22;63419;42.262;12.210;2023-05-10T02:12:36;13.30;99.90
74869;DHT22;63419;42.262;12.210;2023-05-10T02:15:05;13.40;99.90
74869;DHT22;63419;42.262;12.210;2023-05-10T02:17:35;13.40;99.90
74869;DHT22;63419;42.262;12.210;2023-05-10T02:20:05;13.30;99.90
74869;DHT22;63419;42.262;12.210;2023-05-10T02:22:33;13.40;99.90
74869;DHT22;63419;42.262;12.210;2023-05-10T02:25:02;13.30;99.90
74869;DHT22;63419;42.262;12.210;2023-05-10T02:27:30;13.40;99.90
74869;DHT22;63419;42.262;12.210;2023-05-10T02:29:57;13.40;99.90
74869;DHT22;63419;42.262;12.210;2023-05-10T02:32:26;13.40;99.90
74869;DHT22;63419;42.262;12.210;2023-05-10T02:34:54;13.50;99.90
74869;DHT22;63419;42.262;12.210;2023-05-10T02:37:22;13.60;99.90
74869;DHT22;63419;42.262;12.210;2023-05-10T02:39:50;13.60;99.90
74869;DHT22;63419;42.262;12.210;2023-05-10T02:42:18;13.70;99.90
74869;DHT22;63419;42.262;12.210;2023-05-10T02:44:48;13.70;99.90
74869;DHT22;63419;42.262;12.210;2023-05-10T02:47:17;13.80;99.90
74869;DHT22;63419;42.262;12.210;2023-05-10T02:49:44;13.80;99.90
74869;DHT22;63419;42.262;12.210;2023-05-10T02:52:21;13.80;99.90
74869;DHT22;63419;42.262;12.210;2023-05-10T02:54:54;13.80;99.90
74869;DHT22;63419;42.262;12.210;2023-05-10T02:57:26;13.80;99.90
74869;DHT22;63419;42.262;12.210;2023-05-10T02:59:54;13.80;99.90
74869;DHT22;63419;42.262;12.210;2023-05-10T03:02:21;13.80;99.90
74869;DHT22;63419;42.262;12.210;2023-05-10T03:04:48;13.80;99.90
74869;DHT22;63419;42.262;12.210;2023-05-10T03:07:16;13.80;99.90
74869;DHT22;63419;42.262;12.210;2023-05-10T03:09:45;13.70;99.90
74869;DHT22;63419;42.262;12.210;2023-05-10T03:18:46;13.80;99.90
74869;DHT22;63419;42.262;12.210;2023-05-10T03:21:17;13.70;99.90
74869;DHT22;63419;42.262;12.210;2023-05-10T03:23:53;13.70;99.90
74869;DHT22;63419;42.262;12.210;2023-05-10T03:26:26;13.50;99.90
74869;DHT22;63419;42.262;12.210;2023-05-10T03:28:54;13.60;99.90
74869;DHT22;63419;42.262;12.210;2023-05-10T03:31:22;13.60;99.90
74869;DHT22;63419;42.262;12.210;2023-05-10T03:33:50;13.60;99.90
74869;DHT22;63419;42.262;12.210;2023-05-10T03:36:18;13.50;99.90
74869;DHT22;63419;42.262;12.210;2023-05-10T03:38:45;13.60;99.90
74869;DHT22;63419;42.262;12.210;2023-05-10T03:41:12;13.60;99.90
74869;DHT22;63419;42.262;12.210;2023-05-10T03:43:39;13.50;99.90
74869;DHT22;63419;42.262;12.210;2023-05-10T03:46:06;13.60;99.90
74869;DHT22;63419;42.262;12.210;2023-05-10T03:48:33;13.80;99.90
74869;DHT22;63419;42.262;12.210;2023-05-10T03:51:00;13.80;99.90
74869;DHT22;63419;42.262;12.210;2023-05-10T03:53:27;13.80;99.90
74869;DHT22;63419;42.262;12.210;2023-05-10T03:55:54;13.80;99.90
74869;DHT22;63419;42.262;12.210;2023-05-10T03:58:21;13.80;99.90
74869;DHT22;63419;42.262;12.210;2023-05-10T04:00:48;13.80;99.90
74869;DHT22;63419;42.262;12.210;2023-05-10T04:03:15;13.90;99.90
74869;DHT22;63419;42.262;12.210;2023-05-10T04:05:42;13.80;99.90
74869;DHT22;63419;42.262;12.210;2023-05-10T04:08:09;13.80;99.90
74869;DHT22;63419;42.262;12.210;2023-05-10T04:10:36;13.90;99.90
74869;DHT22;63419;42.262;12.210;2023-05-10T04:13:03;13.80;99.90
74869;DHT22;63419;42.262;12.210;2023-05-10T04:15:30;13.90;99.90
74869;DHT22;63419;42.262;12.210;2023-05-10T04:17:57;13.90;99.90
74869;DHT22;63419;42.262;12.210;2023-05-10T04:20:24;13.90;99.90
74869;DHT22;63419;42.262;12.210;2023-05-10T04:22:51;13.90;99.90
74869;DHT22;63419;42.262;12.210;2023-05-10T04:25:18;14.00;99.90
74869;DHT22;63419;42.262;12.210;2023-05-10T04:27:45;14.10;99.90
74869;DHT22;63419;42.262;12.210;2023-05-10T04:30:12;14.10;99.90
74869;DHT22;63419;42.262;12.210;2023-05-10T04:32:39;14.10;99.90
74869;DHT22;63419;42.262;12.210;2023-05-10T04:35:06;14.30;99.90
74869;DHT22;63419;42.262;12.210;2023-05-10T04:37:33;14.40;99.90
74869;DHT22;63419;42.262;12.210;2023-05-10T04:40:00;14.40;99.90
74869;DHT22;63419;42.262;12.210;2023-05-10T04:42:27;14.40;99.90
74869;DHT22;63419;42.262;12.210;2023-05-10T04:44:54;14.50;99.90
74869;DHT22;63419;42.262;12.210;2023-05-10T04:47:21;14.40;99.90
74869;DHT22;63419;42.262;12.210;2023-05-10T04:49:48;14.40;99.90
74869;DHT22;63419;42.262;12.210;2023-05-10T04:52:15;14.30;99.90
74869;DHT22;63419;42.262;12.210;2023-05-10T04:54:44;14.30;99.90
74869;DHT22;63419;42.262;12.210;2023-05-10T04:57:10;14.40;99.90
74869;DHT22;63419;42.262;12.210;2023-05-10T04:59:37;14.40;99.90
74869;DHT22;63419;42.262;12.210;2023-05-10T05:02:05;13.90;99.90
74869;DHT22;63419;42.262;12.210;2023-05-10T05:04:32;13.70;99.90
74869;DHT22;63419;42.262;12.210;2023-05-10T05:06:59;13.40;99.90
74869;DHT22;63419;42.262;12.210;2023-05-10T05:09:26;13.60;99.90
74869;DHT22;63419;42.262;12.210;2023-05-10T05:11:53;13.40;99.90
74869;DHT22;63419;42.262;12.210;2023-05-10T05:14:20;13.20;99.90
74869;DHT22;63419;42.262;12.210;2023-05-10T05:16:52;13.20;99.90
74869;DHT22;63419;42.262;12.210;2023-05-10T05:19:19;13.30;99.90
74869;DHT22;63419;42.262;12.210;2023-05-10T05:21:46;13.30;99.90
74869;DHT22;63419;42.262;12.210;2023-05-10T05:24:13;13.30;99.90
74869;DHT22;63419;42.262;12.210;2023-05-10T05:26:40;13.20;99.90
74869;DHT22;63419;42.262;12.210;2023-05-10T05:29:08;13.10;99.90
74869;DHT22;63419;42.262;12.210;2023-05-10T05:31:35;13.20;99.90
74869;DHT22;63419;42.262;12.210;2023-05-10T05:34:02;13.30;99.90
74869;DHT22;63419;42.262;12.210;2023-05-10T05:36:29;13.50;99.90
74869;DHT22;63419;42.262;12.210;2023-05-10T05:38:57;13.60;99.90
74869;DHT22;63419;42.262;12.210;2023-05-10T05:41:24;13.80;99.90
74869;DHT22;63419;42.262;12.210;2023-05-10T05:43:51;14.00;99.90
74869;DHT22;63419;42.262;12.210;2023-05-10T05:46:18;14.20;99.90
74869;DHT22;63419;42.262;12.210;2023-05-10T05:48:45;14.30;99.90
74869;DHT22;63419;42.262;12.210;2023-05-10T05:51:12;14.50;99.90
74869;DHT22;63419;42.262;12.210;2023-05-10T05:53:39;14.30;99.90
74869;DHT22;63419;42.262;12.210;2023-05-10T05:56:06;14.40;99.90
74869;DHT22;63419;42.262;12.210;2023-05-10T05:58:34;14.40;99.90
74869;DHT22;63419;42.262;12.210;2023-05-10T06:01:01;14.40;99.90
74869;DHT22;63419;42.262;12.210;2023-05-10T06:03:28;14.50;99.90
74869;DHT22;63419;42.262;12.210;2023-05-10T06:05:55;14.40;99.90
74869;DHT22;63419;42.262;12.210;2023-05-10T06:08:22;14.40;99.90
74869;DHT22;63419;42.262;12.210;2023-05-10T06:10:49;14.50;99.90
74869;DHT22;63419;42.262;12.210;2023-05-10T06:13:16;14.50;99.90
74869;DHT22;63419;42.262;12.210;2023-05-10T06:15:43;14.60;99.90
74869;DHT22;63419;42.262;12.210;2023-05-10T06:18:10;14.50;99.90
74869;DHT22;63419;42.262;12.210;2023-05-10T06:20:37;14.30;99.90
74869;DHT22;63419;42.262;12.210;2023-05-10T06:23:04;14.40;99.90
74869;DHT22;63419;42.262;12.210;2023-05-10T06:25:31;14.40;99.90
74869;DHT22;63419;42.262;12.210;2023-05-10T06:27:58;14.60;99.90
74869;DHT22;63419;42.262;12.210;2023-05-10T06:30:25;14.90;99.90
74869;DHT22;63419;42.262;12.210;2023-05-10T06:32:55;14.80;99.90
74869;DHT22;63419;42.262;12.210;2023-05-10T06:35:23;15.00;99.90
74869;DHT22;63419;42.262;12.210;2023-05-10T06:37:50;15.10;99.90
74869;DHT22;63419;42.262;12.210;2023-05-10T06:40:17;15.30;99.90
74869;DHT22;63419;42.262;12.210;2023-05-10T06:42:45;15.50;99.90
74869;DHT22;63419;42.262;12.210;2023-05-10T06:45:13;15.60;99.90
74869;DHT22;63419;42.262;12.210;2023-05-10T06:47:41;15.70;99.90
74869;DHT22;63419;42.262;12.210;2023-05-10T06:50:09;15.50;99.90
74869;DHT22;63419;42.262;12.210;2023-05-10T06:52:37;15.70;99.90
74869;DHT22;63419;42.262;12.210;2023-05-10T06:55:05;15.60;99.90
74869;DHT22;63419;42.262;12.210;2023-05-10T06:57:32;15.60;99.90
74869;DHT22;63419;42.262;12.210;2023-05-10T06:59:59;15.70;99.90
74869;DHT22;63419;42.262;12.210;2023-05-10T07:02:26;16.00;99.90
74869;DHT22;63419;42.262;12.210;2023-05-10T07:04:53;15.70;99.90
74869;DHT22;63419;42.262;12.210;2023-05-10T07:07:21;15.90;99.90
74869;DHT22;63419;42.262;12.210;2023-05-10T07:09:48;15.90;99.90
74869;DHT22;63419;42.262;12.210;2023-05-10T07:12:16;16.10;99.90
74869;DHT22;63419;42.262;12.210;2023-05-10T07:14:43;15.80;99.90
74869;DHT22;63419;42.262;12.210;2023-05-10T07:17:10;16.10;99.90
74869;DHT22;63419;42.262;12.210;2023-05-10T07:19:37;15.80;99.90
74869;DHT22;63419;42.262;12.210;2023-05-10T07:22:04;16.20;99.90
74869;DHT22;63419;42.262;12.210;2023-05-10T07:24:32;15.50;99.90
74869;DHT22;63419;42.262;12.210;2023-05-10T07:26:59;15.60;99.90
74869;DHT22;63419;42.262;12.210;2023-05-10T07:29:26;15.50;99.90
74869;DHT22;63419;42.262;12.210;2023-05-10T07:31:53;15.40;99.90
74869;DHT22;63419;42.262;12.210;2023-05-10T07:34:24;15.20;99.90
74869;DHT22;63419;42.262;12.210;2023-05-10T07:36:52;14.70;99.90
74869;DHT22;63419;42.262;12.210;2023-05-10T07:39:18;14.80;99.90
74869;DHT22;63419;42.262;12.210;2023-05-10T07:41:54;14.80;99.90
74869;DHT22;63419;42.262;12.210;2023-05-10T07:44:21;14.80;99.90
74869;DHT22;63419;42.262;12.210;2023-05-10T07:46:48;14.90;99.90
74869;DHT22;63419;42.262;12.210;2023-05-10T07:49:15;15.00;99.90
74869;DHT22;63419;42.262;12.210;2023-05-10T07:51:42;15.10;99.90
74869;DHT22;63419;42.262;12.210;2023-05-10T07:54:09;15.20;99.90
74869;DHT22;63419;42.262;12.210;2023-05-10T07:56:36;15.10;99.90
74869;DHT22;63419;42.262;12.210;2023-05-10T07:59:03;15.00;99.90
74869;DHT22;63419;42.262;12.210;2023-05-10T08:01:34;14.90;99.90
74869;DHT22;63419;42.262;12.210;2023-05-10T08:04:02;15.00;99.90
74869;DHT22;63419;42.262;12.210;2023-05-10T08:06:29;14.90;99.90
74869;DHT22;63419;42.262;12.210;2023-05-10T08:08:57;14.80;99.90
74869;DHT22;63419;42.262;12.210;2023-05-10T08:11:24;14.70;99.90
74869;DHT22;63419;42.262;12.210;2023-05-10T08:13:52;14.10;99.90
74869;DHT22;63419;42.262;12.210;2023-05-10T08:16:20;14.40;99.90
74869;DHT22;63419;42.262;12.210;2023-05-10T08:18:47;14.40;99.90
74869;DHT22;63419;42.262;12.210;2023-05-10T08:21:14;14.00;99.90
74869;DHT22;63419;42.262;12.210;2023-05-10T08:23:42;13.80;99.90
74869;DHT22;63419;42.262;12.210;2023-05-10T08:26:11;13.80;99.90
74869;DHT22;63419;42.262;12.210;2023-05-10T08:28:38;13.90;99.90
74869;DHT22;63419;42.262;12.210;2023-05-10T08:31:05;14.00;99.90
74869;DHT22;63419;42.262;12.210;2023-05-10T08:33:32;14.00;99.90
74869;DHT22;63419;42.262;12.210;2023-05-10T08:35:59;14.00;99.90
74869;DHT22;63419;42.262;12.210;2023-05-10T08:38:26;14.00;99.90
74869;DHT22;63419;42.262;12.210;2023-05-10T08:40:54;14.20;99.90
74869;DHT22;63419;42.262;12.210;2023-05-10T08:43:29;14.70;99.90
74869;DHT22;63419;42.262;12.210;2023-05-10T08:46:00;15.00;99.90
74869;DHT22;63419;42.262;12.210;2023-05-10T08:48:30;15.20;99.90
74869;DHT22;63419;42.262;12.210;2023-05-10T08:50:58;15.10;99.90
74869;DHT22;63419;42.262;12.210;2023-05-10T08:53:28;15.30;99.90
74869;DHT22;63419;42.262;12.210;2023-05-10T08:55:57;15.30;99.90
74869;DHT22;63419;42.262;12.210;2023-05-10T08:58:25;15.40;99.90
74869;DHT22;63419;42.262;12.210;2023-05-10T09:00:52;15.10;99.90
74869;DHT22;63419;42.262;12.210;2023-05-10T09:03:20;15.50;99.90
74869;DHT22;63419;42.262;12.210;2023-05-10T09:05:47;15.80;99.90
74869;DHT22;63419;42.262;12.210;2023-05-10T09:08:15;15.80;99.90
74869;DHT22;63419;42.262;12.210;2023-05-10T09:10:44;16.40;99.90
74869;DHT22;63419;42.262;12.210;2023-05-10T09:13:14;16.30;99.90
74869;DHT22;63419;42.262;12.210;2023-05-10T09:15:45;15.90;99.90
74869;DHT22;63419;42.262;12.210;2023-05-10T09:18:12;16.30;99.90
74869;DHT22;63419;42.262;12.210;2023-05-10T09:20:40;16.50;99.90
74869;DHT22;63419;42.262;12.210;2023-05-10T09:23:07;16.30;99.90
74869;DHT22;63419;42.262;12.210;2023-05-10T09:25:34;16.40;99.90
74869;DHT22;63419;42.262;12.210;2023-05-10T09:28:01;16.70;99.90
74869;DHT22;63419;42.262;12.210;2023-05-10T09:30:29;17.00;99.90
74869;DHT22;63419;42.262;12.210;2023-05-10T09:32:58;16.90;99.90
74869;DHT22;63419;42.262;12.210;2023-05-10T09:35:30;16.60;99.90
74869;DHT22;63419;42.262;12.210;2023-05-10T09:38:02;16.50;99.90
74869;DHT22;63419;42.262;12.210;2023-05-10T09:40:31;16.50;99.90
74869;DHT22;63419;42.262;12.210;2023-05-10T09:45:27;16.20;99.90
74869;DHT22;63419;42.262;12.210;2023-05-10T09:47:55;15.90;99.90
74869;DHT22;63419;42.262;12.210;2023-05-10T09:50:23;15.90;99.90
74869;DHT22;63419;42.262;12.210;2023-05-10T09:52:54;15.70;99.90
74869;DHT22;63419;42.262;12.210;2023-05-10T09:55:22;15.50;99.90
74869;DHT22;63419;42.262;12.210;2023-05-10T09:57:59;15.70;99.90
74869;DHT22;63419;42.262;12.210;2023-05-10T10:00:26;15.90;99.90
74869;DHT22;63419;42.262;12.210;2023-05-10T10:02:55;15.80;99.90
74869;DHT22;63419;42.262;12.210;2023-05-10T10:05:29;15.50;99.90
74869;DHT22;63419;42.262;12.210;2023-05-10T10:08:00;15.30;99.90
74869;DHT22;63419;42.262;12.210;2023-05-10T10:10:28;15.30;99.90
74869;DHT22;63419;42.262;12.210;2023-05-10T10:12:55;15.00;99.90
74869;DHT22;63419;42.262;12.210;2023-05-10T10:15:23;15.00;99.90
74869;DHT22;63419;42.262;12.210;2023-05-10T10:17:52;15.00;99.90
74869;DHT22;63419;42.262;12.210;2023-05-10T10:20:20;15.10;99.90
74869;DHT22;63419;42.262;12.210;2023-05-10T10:22:48;15.10;99.90
74869;DHT22;63419;42.262;12.210;2023-05-10T10:25:16;14.90;99.90
74869;DHT22;63419;42.262;12.210;2023-05-10T10:30:42;14.60;99.90
74869;DHT22;63419;42.262;12.210;2023-05-10T10:33:47;14.40;99.90
74869;DHT22;63419;42.262;12.210;2023-05-10T10:36:19;14.00;99.90
74869;DHT22;63419;42.262;12.210;2023-05-10T10:49:44;13.70;99.90
74869;DHT22;63419;42.262;12.210;2023-05-10T10:52:23;13.80;99.90
74869;DHT22;63419;42.262;12.210;2023-05-10T10:55:01;13.80;99.90
74869;DHT22;63419;42.262;12.210;2023-05-10T10:57:32;13.80;99.90
74869;DHT22;63419;42.262;12.210;2023-05-10T11:07:57;13.80;99.90
74869;DHT22;63419;42.262;12.210;2023-05-10T11:10:25;13.90;99.90
74869;DHT22;63419;42.262;12.210;2023-05-10T11:13:03;14.00;99.90
74869;DHT22;63419;42.262;12.210;2023-05-10T11:15:39;14.00;99.90
74869;DHT22;63419;42.262;12.210;2023-05-10T11:18:24;14.00;99.90
74869;DHT22;63419;42.262;12.210;2023-05-10T11:20:52;14.10;99.90
74869;DHT22;63419;42.262;12.210;2023-05-10T11:23:19;14.10;99.90
74869;DHT22;63419;42.262;12.210;2023-05-10T11:25:48;14.40;99.90
74869;DHT22;63419;42.262;12.210;2023-05-10T11:28:17;14.50;99.90
74869;DHT22;63419;42.262;12.210;2023-05-10T11:30:46;14.60;99.90
74869;DHT22;63419;42.262;12.210;2023-05-10T11:33:17;14.30;99.90
74869;DHT22;63419;42.262;12.210;2023-05-10T11:35:44;14.30;99.90
74869;DHT22;63419;42.262;12.210;2023-05-10T11:38:12;14.20;99.90
74869;DHT22;63419;42.262;12.210;2023-05-10T11:40:40;14.20;99.90
74869;DHT22;63419;42.262;12.210;2023-05-10T11:43:09;14.30;99.90
74869;DHT22;63419;42.262;12.210;2023-05-10T11:45:37;14.30;99.90
74869;DHT22;63419;42.262;12.210;2023-05-10T11:48:04;14.60;99.90
74869;DHT22;63419;42.262;12.210;2023-05-10T11:53:19;14.70;99.90
74869;DHT22;63419;42.262;12.210;2023-05-10T11:55:48;14.80;99.90
74869;DHT22;63419;42.262;12.210;2023-05-10T11:58:15;14.90;99.90
74869;DHT22;63419;42.262;12.210;2023-05-10T12:00:42;15.00;99.90
74869;DHT22;63419;42.262;12.210;2023-05-10T12:03:09;14.70;99.90
74869;DHT22;63419;42.262;12.210;2023-05-10T12:05:37;14.60;99.90
74869;DHT22;63419;42.262;12.210;2023-05-10T12:08:19;14.80;99.90
74869;DHT22;63419;42.262;12.210;2023-05-10T12:10:47;14.80;99.90
74869;DHT22;63419;42.262;12.210;2023-05-10T12:13:14;15.10;99.90
74869;DHT22;63419;42.262;12.210;2023-05-10T12:15:42;15.10;99.90
74869;DHT22;63419;42.262;12.210;2023-05-10T12:18:11;15.10;99.90
74869;DHT22;63419;42.262;12.210;2023-05-10T12:20:38;14.90;99.90
74869;DHT22;63419;42.262;12.210;2023-05-10T12:23:08;14.90;99.90
74869;DHT22;63419;42.262;12.210;2023-05-10T12:25:37;14.90;99.90
74869;DHT22;63419;42.262;12.210;2023-05-10T12:28:07;14.70;99.90
74869;DHT22;63419;42.262;12.210;2023-05-10T12:30:35;14.30;99.90
74869;DHT22;63419;42.262;12.210;2023-05-10T12:33:13;14.30;99.90
74869;DHT22;63419;42.262;12.210;2023-05-10T12:35:52;14.40;99.90
74869;DHT22;63419;42.262;12.210;2023-05-10T12:40:51;14.90;99.90
74869;DHT22;63419;42.262;12.210;2023-05-10T12:43:18;14.80;99.90
74869;DHT22;63419;42.262;12.210;2023-05-10T12:45:45;14.70;99.90
74869;DHT22;63419;42.262;12.210;2023-05-10T12:48:15;14.80;99.90
74869;DHT22;63419;42.262;12.210;2023-05-10T12:50:42;14.90;99.90
74869;DHT22;63419;42.262;12.210;2023-05-10T12:53:09;14.80;99.90
74869;DHT22;63419;42.262;12.210;2023-05-10T12:55:36;14.80;99.90
74869;DHT22;63419;42.262;12.210;2023-05-10T12:58:03;14.80;99.90
74869;DHT22;63419;42.262;12.210;2023-05-10T13:00:30;15.00;99.90
74869;DHT22;63419;42.262;12.210;2023-05-10T13:02:57;15.20;99.90
74869;DHT22;63419;42.262;12.210;2023-05-10T13:05:23;15.20;99.90
74869;DHT22;63419;42.262;12.210;2023-05-10T13:07:51;15.50;99.90
74869;DHT22;63419;42.262;12.210;2023-05-10T13:10:18;15.70;99.90
74869;DHT22;63419;42.262;12.210;2023-05-10T13:12:45;15.70;99.90
74869;DHT22;63419;42.262;12.210;2023-05-10T13:15:12;15.60;99.90
74869;DHT22;63419;42.262;12.210;2023-05-10T13:17:39;15.60;99.90
74869;DHT22;63419;42.262;12.210;2023-05-10T13:20:07;15.40;99.90
74869;DHT22;63419;42.262;12.210;2023-05-10T13:22:34;15.50;99.90
74869;DHT22;63419;42.262;12.210;2023-05-10T13:25:06;16.00;99.90
74869;DHT22;63419;42.262;12.210;2023-05-10T13:27:33;16.50;99.90
74869;DHT22;63419;42.262;12.210;2023-05-10T13:30:00;17.00;99.90
74869;DHT22;63419;42.262;12.210;2023-05-10T13:32:26;17.10;99.90
74869;DHT22;63419;42.262;12.210;2023-05-10T13:34:54;17.10;99.90
74869;DHT22;63419;42.262;12.210;2023-05-10T13:37:21;16.90;99.90
74869;DHT22;63419;42.262;12.210;2023-05-10T13:39:48;16.70;99.90
74869;DHT22;63419;42.262;12.210;2023-05-10T13:42:15;16.00;99.90
74869;DHT22;63419;42.262;12.210;2023-05-10T13:44:42;15.50;99.90
74869;DHT22;63419;42.262;12.210;2023-05-10T13:47:09;15.40;99.90
74869;DHT22;63419;42.262;12.210;2023-05-10T13:49:36;15.30;99.90
74869;DHT22;63419;42.262;12.210;2023-05-10T13:52:04;15.10;99.90
74869;DHT22;63419;42.262;12.210;2023-05-10T13:54:34;15.00;99.90
74869;DHT22;63419;42.262;12.210;2023-05-10T13:57:01;15.30;99.90
74869;DHT22;63419;42.262;12.210;2023-05-10T13:59:29;15.30;99.90
74869;DHT22;63419;42.262;12.210;2023-05-10T14:01:58;15.60;99.90
74869;DHT22;63419;42.262;12.210;2023-05-10T14:04:25;16.60;99.90
74869;DHT22;63419;42.262;12.210;2023-05-10T14:06:52;17.10;99.90
74869;DHT22;63419;42.262;12.210;2023-05-10T14:09:19;17.00;99.90
74869;DHT22;63419;42.262;12.210;2023-05-10T14:11:46;16.80;99.90
74869;DHT22;63419;42.262;12.210;2023-05-10T14:14:13;16.30;99.90
74869;DHT22;63419;42.262;12.210;2023-05-10T14:16:42;15.90;99.90
74869;DHT22;63419;42.262;12.210;2023-05-10T14:19:10;15.90;99.90
74869;DHT22;63419;42.262;12.210;2023-05-10T14:21:37;16.00;99.90
74869;DHT22;63419;42.262;12.210;2023-05-10T14:24:04;15.70;99.90
74869;DHT22;63419;42.262;12.210;2023-05-10T14:26:33;15.80;99.90
74869;DHT22;63419;42.262;12.210;2023-05-10T14:29:01;16.10;99.90
74869;DHT22;63419;42.262;12.210;2023-05-10T14:31:28;15.90;99.90
74869;DHT22;63419;42.262;12.210;2023-05-10T14:33:57;16.00;99.90
74869;DHT22;63419;42.262;12.210;2023-05-10T14:36:24;16.10;99.90
74869;DHT22;63419;42.262;12.210;2023-05-10T14:38:51;15.30;99.90
74869;DHT22;63419;42.262;12.210;2023-05-10T14:41:18;15.10;99.90
74869;DHT22;63419;42.262;12.210;2023-05-10T14:43:45;15.30;99.90
74869;DHT22;63419;42.262;12.210;2023-05-10T14:46:12;15.40;99.90
74869;DHT22;63419;42.262;12.210;2023-05-10T14:48:39;15.40;99.90
74869;DHT22;63419;42.262;12.210;2023-05-10T14:51:06;15.60;99.90
74869;DHT22;63419;42.262;12.210;2023-05-10T14:53:33;15.40;99.90
74869;DHT22;63419;42.262;12.210;2023-05-10T14:56:00;15.50;99.90
74869;DHT22;63419;42.262;12.210;2023-05-10T14:58:32;15.50;99.90
74869;DHT22;63419;42.262;12.210;2023-05-10T15:01:00;15.20;99.90
74869;DHT22;63419;42.262;12.210;2023-05-10T15:03:27;15.20;99.90
74869;DHT22;63419;42.262;12.210;2023-05-10T15:05:55;15.10;99.90
74869;DHT22;63419;42.262;12.210;2023-05-10T15:08:24;14.90;99.90
74869;DHT22;63419;42.262;12.210;2023-05-10T15:10:51;15.00;99.90
74869;DHT22;63419;42.262;12.210;2023-05-10T15:13:18;15.00;99.90
74869;DHT22;63419;42.262;12.210;2023-05-10T15:15:45;14.90;99.90
74869;DHT22;63419;42.262;12.210;2023-05-10T15:18:12;15.10;99.90
74869;DHT22;63419;42.262;12.210;2023-05-10T15:20:39;15.20;99.90
74869;DHT22;63419;42.262;12.210;2023-05-10T15:23:06;15.50;99.90
74869;DHT22;63419;42.262;12.210;2023-05-10T15:25:33;15.70;99.90
74869;DHT22;63419;42.262;12.210;2023-05-10T15:28:04;15.70;99.90
74869;DHT22;63419;42.262;12.210;2023-05-10T15:30:31;15.60;99.90
74869;DHT22;63419;42.262;12.210;2023-05-10T15:32:58;15.40;99.90
74869;DHT22;63419;42.262;12.210;2023-05-10T15:35:26;15.40;99.90
74869;DHT22;63419;42.262;12.210;2023-05-10T15:37:53;16.10;99.90
74869;DHT22;63419;42.262;12.210;2023-05-10T15:40:20;16.50;99.90
74869;DHT22;63419;42.262;12.210;2023-05-10T15:42:47;16.70;99.90
74869;DHT22;63419;42.262;12.210;2023-05-10T15:45:14;16.60;99.90
74869;DHT22;63419;42.262;12.210;2023-05-10T15:47:42;16.30;99.90
74869;DHT22;63419;42.262;12.210;2023-05-10T15:50:11;16.40;99.90
74869;DHT22;63419;42.262;12.210;2023-05-10T15:52:38;16.40;99.90
74869;DHT22;63419;42.262;12.210;2023-05-10T15:55:05;16.00;99.90
74869;DHT22;63419;42.262;12.210;2023-05-10T15:57:39;15.90;99.90
74869;DHT22;63419;42.262;12.210;2023-05-10T16:00:08;15.80;99.90
74869;DHT22;63419;42.262;12.210;2023-05-10T16:02:35;15.80;99.90
74869;DHT22;63419;42.262;12.210;2023-05-10T16:05:03;15.60;99.90
74869;DHT22;63419;42.262;12.210;2023-05-10T16:07:30;15.50;99.90